AFR081 KSFO-LFPG
Flight info
| Callsign | AFR081 |
|---|---|
| Flight time | N/A |
| Altitude | 35000 |
| Route | NIITE4 ORRCA DCT KO60G DCT KU78K DCT KU06O DCT KU15Q DCT KU21S DCT 50N105W 52N100W 5330N09000W DCT VIRSO DCT 54N070W/N0482F370 DCT DORYY/M082F370 DCT 57N050W 57N040W 56N030W 55N020W DCT DOGAL/N0465F370 DCT BEXET/N0472F390 DCT LEDGO DCT ANNET UM25 INGOR/N0427F280 UM25 LUKIP |
| Aircraft | B77W/H-SDE2E3FGHIJ3J5M1P2RWXYZ/LB1D1 |
Departure
| Time | 2026-05-03 22:23 |
|---|---|
| Airport | San Francisco International Airport (KSFO) |
Arrival
| Time | N/A |
|---|---|
| Airport | Charles de Gaulle International Airport (LFPG) |
| Time | Latitude | Longitude | Altitude | Speed | Heading |
|---|---|---|---|---|---|
| 2026-05-03 21:38 | 37.61221 | -122.38896 | 27 ft | 0 kts | 298° |
| 2026-05-03 21:41 | 37.61179 | -122.38638 | 27 ft | 0 kts | 117° |
| 2026-05-03 21:41 | 37.61178 | -122.38636 | 27 ft | 0 kts | 118° |
| 2026-05-03 22:04 | 37.61179 | -122.38637 | 27 ft | 1 kts | 118° |
| 2026-05-03 22:04 | 37.61190 | -122.38665 | 27 ft | 4 kts | 118° |
| 2026-05-03 22:05 | 37.61201 | -122.38691 | 27 ft | 2 kts | 118° |
| 2026-05-03 22:05 | 37.61213 | -122.38718 | 27 ft | 4 kts | 127° |
| 2026-05-03 22:05 | 37.61232 | -122.38741 | 27 ft | 4 kts | 154° |
| 2026-05-03 22:05 | 37.61253 | -122.38744 | 27 ft | 2 kts | 208° |
| 2026-05-03 22:06 | 37.61236 | -122.38756 | 27 ft | 4 kts | 208° |
| 2026-05-03 22:06 | 37.61212 | -122.38772 | 27 ft | 4 kts | 208° |
| 2026-05-03 22:06 | 37.61189 | -122.38787 | 27 ft | 4 kts | 208° |
| 2026-05-03 22:06 | 37.61165 | -122.38803 | 27 ft | 4 kts | 208° |
| 2026-05-03 22:07 | 37.61143 | -122.38818 | 27 ft | 1 kts | 208° |
| 2026-05-03 22:07 | 37.61142 | -122.38818 | 27 ft | 0 kts | 208° |
| 2026-05-03 22:12 | 37.61132 | -122.38825 | 27 ft | 3 kts | 208° |
| 2026-05-03 22:12 | 37.61100 | -122.38846 | 27 ft | 7 kts | 207° |
| 2026-05-03 22:13 | 37.61027 | -122.38859 | 27 ft | 13 kts | 154° |
| 2026-05-03 22:13 | 37.60974 | -122.38776 | 27 ft | 13 kts | 120° |
| 2026-05-03 22:13 | 37.60931 | -122.38679 | 27 ft | 13 kts | 117° |
| 2026-05-03 22:13 | 37.60892 | -122.38581 | 27 ft | 13 kts | 116° |
| 2026-05-03 22:14 | 37.60832 | -122.38504 | 27 ft | 13 kts | 166° |
| 2026-05-03 22:14 | 37.60725 | -122.38497 | 27 ft | 18 kts | 172° |
| 2026-05-03 22:14 | 37.60628 | -122.38410 | 27 ft | 18 kts | 130° |
| 2026-05-03 22:14 | 37.60550 | -122.38293 | 27 ft | 18 kts | 128° |
| 2026-05-03 22:15 | 37.60503 | -122.38154 | 27 ft | 18 kts | 89° |
| 2026-05-03 22:15 | 37.60525 | -122.38004 | 27 ft | 18 kts | 64° |
| 2026-05-03 22:15 | 37.60623 | -122.37916 | 27 ft | 18 kts | 28° |
| 2026-05-03 22:15 | 37.60731 | -122.37844 | 27 ft | 18 kts | 27° |
| 2026-05-03 22:16 | 37.60839 | -122.37773 | 27 ft | 18 kts | 27° |
| 2026-05-03 22:16 | 37.60948 | -122.37701 | 27 ft | 19 kts | 27° |
| 2026-05-03 22:16 | 37.61070 | -122.37620 | 27 ft | 21 kts | 27° |
| 2026-05-03 22:16 | 37.61208 | -122.37530 | 27 ft | 24 kts | 27° |
| 2026-05-03 22:17 | 37.61361 | -122.37430 | 27 ft | 26 kts | 28° |
| 2026-05-03 22:17 | 37.61500 | -122.37333 | 27 ft | 19 kts | 36° |
| 2026-05-03 22:17 | 37.61561 | -122.37191 | 27 ft | 19 kts | 86° |
| 2026-05-03 22:17 | 37.61520 | -122.37036 | 27 ft | 19 kts | 116° |
| 2026-05-03 22:18 | 37.61456 | -122.36890 | 27 ft | 19 kts | 133° |
| 2026-05-03 22:18 | 37.61365 | -122.36771 | 27 ft | 19 kts | 126° |
| 2026-05-03 22:18 | 37.61300 | -122.36627 | 27 ft | 19 kts | 116° |
| 2026-05-03 22:18 | 37.61240 | -122.36481 | 27 ft | 17 kts | 117° |
| 2026-05-03 22:19 | 37.61206 | -122.36397 | 27 ft | 15 kts | 117° |
| 2026-05-03 22:19 | 37.61177 | -122.36330 | 27 ft | 0 kts | 120° |
| 2026-05-03 22:19 | 37.61177 | -122.36329 | 27 ft | 1 kts | 120° |
| 2026-05-03 22:19 | 37.61155 | -122.36281 | 27 ft | 9 kts | 118° |
| 2026-05-03 22:20 | 37.61129 | -122.36219 | 27 ft | 5 kts | 118° |
| 2026-05-03 22:20 | 37.61127 | -122.36215 | 27 ft | 0 kts | 118° |
| 2026-05-03 22:21 | 37.61107 | -122.36167 | 27 ft | 11 kts | 118° |
| 2026-05-03 22:21 | 37.61101 | -122.36153 | 27 ft | 0 kts | 118° |
| 2026-05-03 22:21 | 37.61101 | -122.36151 | 27 ft | 1 kts | 113° |
| 2026-05-03 22:22 | 37.61107 | -122.36124 | 27 ft | 6 kts | 60° |
| 2026-05-03 22:22 | 37.61150 | -122.36078 | 27 ft | 7 kts | 32° |
| 2026-05-03 22:22 | 37.61221 | -122.36035 | 27 ft | 18 kts | 12° |
| 2026-05-03 22:22 | 37.61273 | -122.36081 | 27 ft | 8 kts | 298° |
| 2026-05-03 22:23 | 37.61356 | -122.36280 | 27 ft | 57 kts | 298° |
| 2026-05-03 22:23 | 37.61677 | -122.37044 | 27 ft | 138 kts | 298° |
| 2026-05-03 22:23 | 37.62232 | -122.38370 | 81 ft | 195 kts | 298° |
| 2026-05-03 22:23 | 37.62899 | -122.39916 | 664 ft | 205 kts | 297° |
| 2026-05-03 22:24 | 37.63785 | -122.41306 | 1322 ft | 214 kts | 329° |
| 2026-05-03 22:24 | 37.65272 | -122.41614 | 1826 ft | 221 kts | 13° |
| 2026-05-03 22:24 | 37.66664 | -122.40643 | 2191 ft | 242 kts | 43° |
| 2026-05-03 22:24 | 37.67873 | -122.39090 | 2746 ft | 253 kts | 45° |
| 2026-05-03 22:25 | 37.69164 | -122.37510 | 3402 ft | 264 kts | 43° |
| 2026-05-03 22:25 | 37.70550 | -122.35939 | 4128 ft | 271 kts | 41° |
| 2026-05-03 22:25 | 37.72001 | -122.34406 | 4890 ft | 273 kts | 33° |
| 2026-05-03 22:25 | 37.73794 | -122.33648 | 5497 ft | 279 kts | 358° |
| 2026-05-03 22:26 | 37.75662 | -122.34231 | 6248 ft | 277 kts | 336° |
| 2026-05-03 22:26 | 37.77434 | -122.35182 | 6875 ft | 284 kts | 337° |
| 2026-05-03 22:26 | 37.79310 | -122.36122 | 7663 ft | 287 kts | 338° |
| 2026-05-03 22:26 | 37.81175 | -122.37041 | 8440 ft | 289 kts | 338° |
| 2026-05-03 22:27 | 37.83062 | -122.37967 | 9165 ft | 293 kts | 338° |
| 2026-05-03 22:27 | 37.85013 | -122.38741 | 9741 ft | 296 kts | 353° |
| 2026-05-03 22:27 | 37.87086 | -122.38693 | 10209 ft | 303 kts | 4° |
| 2026-05-03 22:27 | 37.89260 | -122.38537 | 10440 ft | 324 kts | 2° |
| 2026-05-03 22:28 | 37.91596 | -122.38432 | 10614 ft | 344 kts | 4° |
| 2026-05-03 22:28 | 37.93966 | -122.37684 | 10717 ft | 364 kts | 28° |
| 2026-05-03 22:28 | 37.95915 | -122.35626 | 10952 ft | 379 kts | 51° |
| 2026-05-03 22:28 | 37.97511 | -122.32917 | 11249 ft | 390 kts | 53° |
| 2026-05-03 22:29 | 37.99163 | -122.30142 | 11832 ft | 397 kts | 53° |
| 2026-05-03 22:29 | 38.00844 | -122.27353 | 12572 ft | 399 kts | 52° |
| 2026-05-03 22:29 | 38.02540 | -122.24552 | 13271 ft | 403 kts | 52° |
| 2026-05-03 22:29 | 38.04261 | -122.21718 | 13882 ft | 408 kts | 52° |
| 2026-05-03 22:30 | 38.06001 | -122.18853 | 14455 ft | 412 kts | 52° |
| 2026-05-03 22:30 | 38.07762 | -122.15958 | 15020 ft | 417 kts | 52° |
| 2026-05-03 22:30 | 38.09543 | -122.13030 | 15568 ft | 420 kts | 52° |
| 2026-05-03 22:30 | 38.11335 | -122.10081 | 16088 ft | 424 kts | 52° |
| 2026-05-03 22:31 | 38.13144 | -122.07102 | 16577 ft | 428 kts | 52° |
| 2026-05-03 22:31 | 38.14969 | -122.04095 | 17042 ft | 431 kts | 52° |
| 2026-05-03 22:31 | 38.16806 | -122.01065 | 17485 ft | 435 kts | 52° |
| 2026-05-03 22:31 | 38.18660 | -121.98004 | 17908 ft | 438 kts | 52° |
| 2026-05-03 22:32 | 38.20522 | -121.94926 | 18310 ft | 441 kts | 52° |
| 2026-05-03 22:32 | 38.22399 | -121.91822 | 18692 ft | 444 kts | 52° |
| 2026-05-03 22:32 | 38.24287 | -121.88696 | 19055 ft | 447 kts | 52° |
| 2026-05-03 22:32 | 38.26187 | -121.85547 | 19401 ft | 450 kts | 52° |
| 2026-05-03 22:33 | 38.28098 | -121.82377 | 19731 ft | 453 kts | 52° |
| 2026-05-03 22:33 | 38.30018 | -121.79188 | 20044 ft | 455 kts | 52° |
| 2026-05-03 22:33 | 38.31947 | -121.75981 | 20343 ft | 458 kts | 52° |
| 2026-05-03 22:33 | 38.33888 | -121.72751 | 20633 ft | 460 kts | 52° |
| 2026-05-03 22:34 | 38.35837 | -121.69505 | 20916 ft | 462 kts | 52° |
| 2026-05-03 22:34 | 38.37792 | -121.66245 | 21192 ft | 465 kts | 52° |
| 2026-05-03 22:34 | 38.39759 | -121.62962 | 21460 ft | 467 kts | 52° |
| 2026-05-03 22:34 | 38.41734 | -121.59663 | 21721 ft | 469 kts | 52° |
| 2026-05-03 22:35 | 38.43693 | -121.56394 | 21971 ft | 471 kts | 52° |
| 2026-05-03 22:35 | 38.45903 | -121.53316 | 22164 ft | 472 kts | 41° |
| 2026-05-03 22:35 | 38.48493 | -121.50711 | 22340 ft | 475 kts | 36° |
| 2026-05-03 22:35 | 38.51176 | -121.48223 | 22555 ft | 478 kts | 36° |
| 2026-05-03 22:36 | 38.53877 | -121.45753 | 22813 ft | 479 kts | 36° |
| 2026-05-03 22:36 | 38.56577 | -121.43253 | 23061 ft | 480 kts | 36° |
| 2026-05-03 22:36 | 38.59274 | -121.40711 | 23279 ft | 482 kts | 37° |
| 2026-05-03 22:36 | 38.61957 | -121.38139 | 23479 ft | 484 kts | 37° |
| 2026-05-03 22:37 | 38.64645 | -121.35533 | 23674 ft | 486 kts | 37° |
| 2026-05-03 22:37 | 38.67337 | -121.32905 | 23870 ft | 488 kts | 37° |
| 2026-05-03 22:37 | 38.70041 | -121.30256 | 24065 ft | 489 kts | 37° |
| 2026-05-03 22:37 | 38.72743 | -121.27604 | 24252 ft | 491 kts | 37° |
| 2026-05-03 22:38 | 38.75456 | -121.24940 | 24429 ft | 493 kts | 37° |
| 2026-05-03 22:38 | 38.78188 | -121.22257 | 24512 ft | 496 kts | 37° |
| 2026-05-03 22:38 | 38.80920 | -121.19574 | 24993 ft | 492 kts | 37° |
| 2026-05-03 22:38 | 38.83606 | -121.16933 | 26020 ft | 481 kts | 37° |
| 2026-05-03 22:39 | 38.86235 | -121.14347 | 26925 ft | 474 kts | 37° |
| 2026-05-03 22:39 | 38.88854 | -121.11770 | 27466 ft | 475 kts | 37° |
| 2026-05-03 22:39 | 38.91490 | -121.09172 | 27810 ft | 481 kts | 37° |
| 2026-05-03 22:39 | 38.94161 | -121.06538 | 28112 ft | 486 kts | 37° |
| 2026-05-03 22:40 | 38.96856 | -121.03878 | 28467 ft | 490 kts | 37° |
| 2026-05-03 22:40 | 38.99563 | -121.01202 | 28846 ft | 492 kts | 37° |
| 2026-05-03 22:40 | 39.02243 | -120.98551 | 29199 ft | 494 kts | 37° |
| 2026-05-03 22:40 | 39.04976 | -120.95844 | 29551 ft | 496 kts | 37° |
| 2026-05-03 22:41 | 39.07704 | -120.93140 | 30014 ft | 496 kts | 37° |
| 2026-05-03 22:41 | 39.10426 | -120.90439 | 30579 ft | 492 kts | 37° |
| 2026-05-03 22:41 | 39.13135 | -120.87747 | 31031 ft | 491 kts | 37° |
| 2026-05-03 22:41 | 39.15840 | -120.85058 | 31343 ft | 493 kts | 37° |
| 2026-05-03 22:42 | 39.18562 | -120.82349 | 31645 ft | 495 kts | 37° |
| 2026-05-03 22:42 | 39.21287 | -120.79634 | 32013 ft | 495 kts | 37° |
| 2026-05-03 22:42 | 39.24005 | -120.76924 | 32370 ft | 495 kts | 37° |
| 2026-05-03 22:42 | 39.26728 | -120.74205 | 32702 ft | 495 kts | 37° |
| 2026-05-03 22:43 | 39.29446 | -120.71488 | 33111 ft | 493 kts | 37° |
| 2026-05-03 22:43 | 39.32152 | -120.68782 | 33437 ft | 493 kts | 37° |
| 2026-05-03 22:43 | 39.34868 | -120.66063 | 33751 ft | 493 kts | 37° |
| 2026-05-03 22:43 | 39.37578 | -120.63346 | 34055 ft | 493 kts | 37° |
| 2026-05-03 22:44 | 39.40287 | -120.60628 | 34240 ft | 496 kts | 37° |
| 2026-05-03 22:44 | 39.43018 | -120.57886 | 34495 ft | 496 kts | 37° |
| 2026-05-03 22:44 | 39.45732 | -120.55157 | 34897 ft | 493 kts | 37° |
| 2026-05-03 22:44 | 39.48437 | -120.52435 | 35014 ft | 491 kts | 37° |
| 2026-05-03 22:45 | 39.51128 | -120.49723 | 35007 ft | 491 kts | 37° |
| 2026-05-03 22:45 | 39.56553 | -120.44248 | 35003 ft | 497 kts | 37° |
| 2026-05-03 22:46 | 39.62004 | -120.38739 | 35010 ft | 497 kts | 38° |
| 2026-05-03 22:46 | 39.67446 | -120.33225 | 35000 ft | 495 kts | 38° |
| 2026-05-03 22:47 | 39.72856 | -120.27731 | 34982 ft | 495 kts | 34° |
| 2026-05-03 22:47 | 39.78267 | -120.22230 | 35054 ft | 500 kts | 34° |
| 2026-05-03 22:48 | 39.83763 | -120.16627 | 35034 ft | 502 kts | 34° |
| 2026-05-03 22:48 | 39.89273 | -120.10995 | 35052 ft | 506 kts | 34° |
| 2026-05-03 22:49 | 39.94834 | -120.05303 | 35064 ft | 510 kts | 34° |
| 2026-05-03 22:49 | 40.00394 | -119.99543 | 35047 ft | 512 kts | 37° |
| 2026-05-03 22:50 | 40.05599 | -119.93183 | 35063 ft | 512 kts | 40° |
| 2026-05-03 22:50 | 40.10725 | -119.86687 | 35060 ft | 513 kts | 40° |
| 2026-05-03 22:51 | 40.15853 | -119.80203 | 35058 ft | 514 kts | 40° |
| 2026-05-03 22:51 | 40.20974 | -119.73762 | 35055 ft | 513 kts | 40° |
| 2026-05-03 22:52 | 40.26162 | -119.67242 | 35061 ft | 514 kts | 40° |
| 2026-05-03 22:52 | 40.31272 | -119.60803 | 35063 ft | 513 kts | 40° |
| 2026-05-03 22:53 | 40.36416 | -119.54306 | 35051 ft | 514 kts | 40° |
| 2026-05-03 22:53 | 40.41565 | -119.47786 | 35054 ft | 515 kts | 40° |
| 2026-05-03 22:54 | 40.46710 | -119.41256 | 35063 ft | 514 kts | 40° |
| 2026-05-03 22:54 | 40.51853 | -119.34711 | 35056 ft | 515 kts | 40° |
| 2026-05-03 22:55 | 40.56990 | -119.28163 | 35056 ft | 515 kts | 40° |
| 2026-05-03 22:55 | 40.62130 | -119.21595 | 35055 ft | 515 kts | 40° |
| 2026-05-03 22:56 | 40.67268 | -119.15016 | 35059 ft | 515 kts | 40° |
| 2026-05-03 22:56 | 40.72369 | -119.08469 | 35056 ft | 515 kts | 40° |
| 2026-05-03 22:57 | 40.77497 | -119.01871 | 35054 ft | 515 kts | 40° |
| 2026-05-03 22:57 | 40.82620 | -118.95264 | 35056 ft | 515 kts | 40° |
| 2026-05-03 22:58 | 40.87733 | -118.88656 | 35054 ft | 514 kts | 40° |
| 2026-05-03 22:58 | 40.92829 | -118.82055 | 35055 ft | 513 kts | 40° |
| 2026-05-03 22:59 | 40.97918 | -118.75448 | 35056 ft | 512 kts | 40° |
| 2026-05-03 22:59 | 41.02994 | -118.68843 | 35055 ft | 512 kts | 40° |
| 2026-05-03 23:00 | 41.08072 | -118.62221 | 35061 ft | 512 kts | 40° |
| 2026-05-03 23:00 | 41.13155 | -118.55578 | 35054 ft | 514 kts | 40° |
| 2026-05-03 23:01 | 41.18253 | -118.48900 | 35067 ft | 515 kts | 40° |
| 2026-05-03 23:01 | 41.23354 | -118.42201 | 35062 ft | 517 kts | 40° |
| 2026-05-03 23:02 | 41.28437 | -118.35510 | 35059 ft | 518 kts | 41° |
| 2026-05-03 23:02 | 41.33585 | -118.28714 | 35057 ft | 518 kts | 41° |
| 2026-05-03 23:03 | 41.38651 | -118.22014 | 35056 ft | 516 kts | 41° |
| 2026-05-03 23:03 | 41.43734 | -118.15277 | 35054 ft | 515 kts | 41° |
| 2026-05-03 23:04 | 41.48800 | -118.08545 | 35056 ft | 513 kts | 41° |
| 2026-05-03 23:04 | 41.53854 | -118.01814 | 35053 ft | 513 kts | 41° |
| 2026-05-03 23:05 | 41.58895 | -117.95087 | 35061 ft | 513 kts | 41° |
| 2026-05-03 23:05 | 41.63941 | -117.88335 | 35058 ft | 513 kts | 41° |
| 2026-05-03 23:06 | 41.68978 | -117.81580 | 35056 ft | 513 kts | 41° |
| 2026-05-03 23:06 | 41.74020 | -117.74801 | 35060 ft | 514 kts | 41° |
| 2026-05-03 23:07 | 41.79066 | -117.68001 | 35058 ft | 515 kts | 41° |
| 2026-05-03 23:07 | 41.84110 | -117.61188 | 35052 ft | 515 kts | 41° |
| 2026-05-03 23:08 | 41.89165 | -117.54346 | 35055 ft | 517 kts | 41° |
| 2026-05-03 23:08 | 41.94194 | -117.47521 | 35062 ft | 518 kts | 41° |
| 2026-05-03 23:09 | 41.99267 | -117.40619 | 35055 ft | 519 kts | 41° |
| 2026-05-03 23:09 | 42.04337 | -117.33703 | 35060 ft | 520 kts | 41° |
| 2026-05-03 23:10 | 42.09405 | -117.26774 | 35056 ft | 520 kts | 41° |
| 2026-05-03 23:10 | 42.14470 | -117.19834 | 35056 ft | 519 kts | 41° |
| 2026-05-03 23:11 | 42.19522 | -117.12894 | 35058 ft | 518 kts | 41° |
| 2026-05-03 23:11 | 42.24561 | -117.05955 | 35057 ft | 517 kts | 41° |
| 2026-05-03 23:12 | 42.29585 | -116.99020 | 35056 ft | 516 kts | 41° |
| 2026-05-03 23:12 | 42.34600 | -116.92084 | 35054 ft | 516 kts | 41° |
| 2026-05-03 23:13 | 42.39606 | -116.85138 | 35058 ft | 515 kts | 42° |
| 2026-05-03 23:13 | 42.43768 | -116.79353 | 35056 ft | 516 kts | 42° |
| 2026-05-03 23:14 | 42.48770 | -116.72384 | 35058 ft | 516 kts | 42° |
| 2026-05-03 23:14 | 42.53774 | -116.65394 | 35056 ft | 517 kts | 42° |
| 2026-05-03 23:15 | 42.58777 | -116.58390 | 35055 ft | 517 kts | 42° |
| 2026-05-03 23:15 | 42.63777 | -116.51373 | 35063 ft | 518 kts | 42° |
| 2026-05-03 23:16 | 42.68784 | -116.44327 | 35053 ft | 518 kts | 42° |
| 2026-05-03 23:16 | 42.73783 | -116.37274 | 35040 ft | 514 kts | 42° |
| 2026-05-03 23:17 | 42.78698 | -116.30321 | 35060 ft | 511 kts | 42° |
| 2026-05-03 23:17 | 42.83622 | -116.23347 | 35062 ft | 516 kts | 42° |
| 2026-05-03 23:18 | 42.88584 | -116.16295 | 35055 ft | 515 kts | 42° |
| 2026-05-03 23:18 | 42.93531 | -116.09244 | 35057 ft | 513 kts | 42° |
| 2026-05-03 23:19 | 42.98459 | -116.02208 | 35055 ft | 512 kts | 42° |
| 2026-05-03 23:19 | 43.03542 | -115.95456 | 35053 ft | 508 kts | 38° |
| 2026-05-03 23:20 | 43.08786 | -115.88994 | 35055 ft | 507 kts | 38° |
| 2026-05-03 23:20 | 43.14035 | -115.82543 | 35060 ft | 507 kts | 38° |
| 2026-05-03 23:21 | 43.19269 | -115.76043 | 35053 ft | 508 kts | 38° |
| 2026-05-03 23:21 | 43.24500 | -115.69499 | 35058 ft | 509 kts | 38° |
| 2026-05-03 23:22 | 43.32361 | -115.59626 | 35054 ft | 512 kts | 38° |
| 2026-05-03 23:22 | 43.37616 | -115.53010 | 35064 ft | 514 kts | 38° |
| 2026-05-03 23:23 | 43.42896 | -115.46347 | 35050 ft | 516 kts | 38° |
| 2026-05-03 23:23 | 43.48196 | -115.39642 | 35057 ft | 518 kts | 38° |
| 2026-05-03 23:24 | 43.53497 | -115.32917 | 35057 ft | 519 kts | 39° |
| 2026-05-03 23:24 | 43.58761 | -115.26221 | 35062 ft | 517 kts | 39° |
| 2026-05-03 23:25 | 43.64037 | -115.19495 | 35051 ft | 516 kts | 39° |
| 2026-05-03 23:25 | 43.69309 | -115.12761 | 35043 ft | 516 kts | 39° |
| 2026-05-03 23:26 | 43.74588 | -115.06001 | 35056 ft | 519 kts | 39° |
| 2026-05-03 23:26 | 43.79887 | -114.99196 | 35062 ft | 521 kts | 39° |
| 2026-05-03 23:27 | 43.85216 | -114.92336 | 35064 ft | 524 kts | 39° |
| 2026-05-03 23:27 | 43.90560 | -114.85433 | 35064 ft | 526 kts | 39° |
| 2026-05-03 23:28 | 43.95908 | -114.78510 | 35061 ft | 525 kts | 39° |
| 2026-05-03 23:28 | 44.01237 | -114.71595 | 35053 ft | 523 kts | 39° |
| 2026-05-03 23:29 | 44.06549 | -114.64685 | 35050 ft | 523 kts | 39° |
| 2026-05-03 23:29 | 44.11856 | -114.57763 | 35048 ft | 524 kts | 39° |
| 2026-05-03 23:30 | 44.17170 | -114.50817 | 35058 ft | 524 kts | 39° |
| 2026-05-03 23:30 | 44.22483 | -114.43848 | 35063 ft | 524 kts | 39° |
| 2026-05-03 23:31 | 44.27736 | -114.36942 | 35049 ft | 522 kts | 39° |
| 2026-05-03 23:31 | 44.33034 | -114.29963 | 35056 ft | 519 kts | 39° |
| 2026-05-03 23:32 | 44.38220 | -114.23100 | 35047 ft | 515 kts | 39° |
| 2026-05-03 23:32 | 44.43441 | -114.16190 | 35062 ft | 517 kts | 39° |
| 2026-05-03 23:33 | 44.48664 | -114.09259 | 35058 ft | 518 kts | 39° |
| 2026-05-03 23:33 | 44.53895 | -114.02295 | 35048 ft | 520 kts | 39° |
| 2026-05-03 23:34 | 44.59130 | -113.95303 | 35057 ft | 519 kts | 39° |
| 2026-05-03 23:34 | 44.64348 | -113.88318 | 35053 ft | 518 kts | 39° |
| 2026-05-03 23:35 | 44.69560 | -113.81322 | 35043 ft | 520 kts | 40° |
| 2026-05-03 23:35 | 44.74798 | -113.74279 | 35057 ft | 522 kts | 40° |
| 2026-05-03 23:36 | 44.80037 | -113.67207 | 35058 ft | 521 kts | 40° |
| 2026-05-03 23:36 | 44.85264 | -113.60135 | 35055 ft | 520 kts | 40° |
| 2026-05-03 23:37 | 44.90470 | -113.53075 | 35051 ft | 519 kts | 40° |
| 2026-05-03 23:37 | 44.95664 | -113.46011 | 35057 ft | 519 kts | 40° |
| 2026-05-03 23:38 | 45.00856 | -113.38934 | 35057 ft | 519 kts | 40° |
| 2026-05-03 23:38 | 45.06048 | -113.31837 | 35050 ft | 520 kts | 40° |
| 2026-05-03 23:39 | 45.11246 | -113.24711 | 35057 ft | 520 kts | 40° |
| 2026-05-03 23:39 | 45.16440 | -113.17572 | 35059 ft | 521 kts | 40° |
| 2026-05-03 23:40 | 45.21600 | -113.10460 | 35063 ft | 520 kts | 40° |
| 2026-05-03 23:40 | 45.26777 | -113.03304 | 35058 ft | 519 kts | 40° |
| 2026-05-03 23:41 | 45.31952 | -112.96135 | 35047 ft | 520 kts | 40° |
| 2026-05-03 23:41 | 45.37125 | -112.88949 | 35050 ft | 520 kts | 40° |
| 2026-05-03 23:42 | 45.42299 | -112.81742 | 35055 ft | 521 kts | 40° |
| 2026-05-03 23:42 | 45.47467 | -112.74521 | 35056 ft | 520 kts | 40° |
| 2026-05-03 23:43 | 45.52614 | -112.67311 | 35056 ft | 518 kts | 40° |
| 2026-05-03 23:43 | 45.57744 | -112.60106 | 35062 ft | 517 kts | 40° |
| 2026-05-03 23:44 | 45.62869 | -112.52890 | 35053 ft | 517 kts | 40° |
| 2026-05-03 23:44 | 45.67980 | -112.45673 | 35049 ft | 517 kts | 41° |
| 2026-05-03 23:45 | 45.73097 | -112.38429 | 35052 ft | 518 kts | 41° |
| 2026-05-03 23:45 | 45.78221 | -112.31154 | 35056 ft | 518 kts | 41° |
| 2026-05-03 23:46 | 45.83332 | -112.23875 | 35061 ft | 518 kts | 41° |
| 2026-05-03 23:46 | 45.88437 | -112.16586 | 35061 ft | 517 kts | 41° |
| 2026-05-03 23:47 | 45.93518 | -112.09311 | 35057 ft | 516 kts | 41° |
| 2026-05-03 23:47 | 45.98593 | -112.02029 | 35048 ft | 516 kts | 41° |
| 2026-05-03 23:48 | 46.03804 | -111.94957 | 35056 ft | 514 kts | 38° |
| 2026-05-03 23:48 | 46.09157 | -111.88131 | 35059 ft | 514 kts | 37° |
| 2026-05-03 23:49 | 46.14512 | -111.81313 | 35055 ft | 514 kts | 37° |
| 2026-05-03 23:49 | 46.19850 | -111.74441 | 35053 ft | 514 kts | 38° |
| 2026-05-03 23:50 | 46.24278 | -111.68700 | 35057 ft | 515 kts | 38° |
| 2026-05-03 23:50 | 46.30464 | -111.60648 | 35053 ft | 515 kts | 38° |
| 2026-05-03 23:51 | 46.35776 | -111.53720 | 35057 ft | 514 kts | 38° |
| 2026-05-03 23:51 | 46.41073 | -111.46793 | 35056 ft | 512 kts | 38° |
| 2026-05-03 23:52 | 46.46361 | -111.39859 | 35052 ft | 512 kts | 38° |
| 2026-05-03 23:52 | 46.51637 | -111.32924 | 35052 ft | 512 kts | 38° |
| 2026-05-03 23:53 | 46.56932 | -111.25949 | 35061 ft | 515 kts | 38° |
| 2026-05-03 23:53 | 46.62248 | -111.18921 | 35058 ft | 517 kts | 38° |
| 2026-05-03 23:54 | 46.67562 | -111.11875 | 35060 ft | 517 kts | 38° |
| 2026-05-03 23:54 | 46.72867 | -111.04821 | 35054 ft | 516 kts | 38° |
| 2026-05-03 23:55 | 46.78168 | -110.97754 | 35053 ft | 516 kts | 38° |
| 2026-05-03 23:55 | 46.83422 | -110.90732 | 35057 ft | 515 kts | 38° |
| 2026-05-03 23:56 | 46.88741 | -110.83603 | 35053 ft | 515 kts | 38° |
| 2026-05-03 23:56 | 46.93995 | -110.76543 | 35068 ft | 517 kts | 38° |
| 2026-05-03 23:57 | 46.99285 | -110.69412 | 35054 ft | 517 kts | 39° |
| 2026-05-03 23:57 | 47.04577 | -110.62256 | 35058 ft | 518 kts | 39° |
| 2026-05-03 23:58 | 47.09872 | -110.55081 | 35062 ft | 518 kts | 39° |
| 2026-05-03 23:58 | 47.15157 | -110.47890 | 35058 ft | 517 kts | 39° |
| 2026-05-03 23:59 | 47.20427 | -110.40705 | 35053 ft | 516 kts | 39° |
| 2026-05-03 23:59 | 47.25673 | -110.33534 | 35052 ft | 514 kts | 39° |
| 2026-05-04 00:00 | 47.30894 | -110.26375 | 35056 ft | 512 kts | 39° |
| 2026-05-04 00:00 | 47.36090 | -110.19229 | 35058 ft | 510 kts | 39° |
| 2026-05-04 00:01 | 47.41266 | -110.12091 | 35057 ft | 509 kts | 39° |
| 2026-05-04 00:01 | 47.46438 | -110.04942 | 35063 ft | 509 kts | 39° |
| 2026-05-04 00:02 | 47.51417 | -109.97492 | 35046 ft | 513 kts | 47° |
| 2026-05-04 00:02 | 47.55739 | -109.89159 | 35064 ft | 514 kts | 49° |
| 2026-05-04 00:03 | 47.60030 | -109.80669 | 35061 ft | 515 kts | 49° |
| 2026-05-04 00:03 | 47.64352 | -109.72179 | 35055 ft | 516 kts | 49° |
| 2026-05-04 00:04 | 47.68696 | -109.63693 | 35059 ft | 517 kts | 49° |
| 2026-05-04 00:04 | 47.73043 | -109.55197 | 35057 ft | 517 kts | 49° |
| 2026-05-04 00:05 | 47.77388 | -109.46674 | 35050 ft | 517 kts | 49° |
| 2026-05-04 00:05 | 47.81721 | -109.38141 | 35056 ft | 517 kts | 49° |
| 2026-05-04 00:06 | 47.85314 | -109.31043 | 35057 ft | 517 kts | 49° |
| 2026-05-04 00:06 | 47.89638 | -109.22478 | 35056 ft | 518 kts | 49° |
| 2026-05-04 00:07 | 47.93963 | -109.13885 | 35059 ft | 518 kts | 49° |
| 2026-05-04 00:07 | 47.98283 | -109.05274 | 35055 ft | 518 kts | 49° |
| 2026-05-04 00:08 | 48.02588 | -108.96665 | 35053 ft | 518 kts | 49° |
| 2026-05-04 00:08 | 48.06888 | -108.88040 | 35052 ft | 517 kts | 50° |
| 2026-05-04 00:09 | 48.11178 | -108.79406 | 35056 ft | 517 kts | 50° |
| 2026-05-04 00:09 | 48.15427 | -108.70828 | 35056 ft | 516 kts | 50° |
| 2026-05-04 00:10 | 48.19692 | -108.62190 | 35054 ft | 516 kts | 50° |
| 2026-05-04 00:10 | 48.23980 | -108.53480 | 35058 ft | 515 kts | 50° |
| 2026-05-04 00:11 | 48.28202 | -108.44873 | 35058 ft | 515 kts | 50° |
| 2026-05-04 00:11 | 48.32445 | -108.36198 | 35057 ft | 515 kts | 50° |
| 2026-05-04 00:12 | 48.36668 | -108.27505 | 35058 ft | 515 kts | 50° |
| 2026-05-04 00:12 | 48.40899 | -108.18799 | 35058 ft | 515 kts | 50° |
| 2026-05-04 00:13 | 48.45121 | -108.10095 | 35055 ft | 515 kts | 50° |
| 2026-05-04 00:13 | 48.49343 | -108.01361 | 35056 ft | 515 kts | 50° |
| 2026-05-04 00:14 | 48.53663 | -107.92752 | 35056 ft | 514 kts | 48° |
| 2026-05-04 00:14 | 48.58150 | -107.84345 | 35060 ft | 514 kts | 47° |
| 2026-05-04 00:15 | 48.62643 | -107.75923 | 35054 ft | 514 kts | 47° |
| 2026-05-04 00:15 | 48.67093 | -107.67460 | 35055 ft | 515 kts | 48° |
| 2026-05-04 00:16 | 48.71529 | -107.58949 | 35059 ft | 515 kts | 48° |
| 2026-05-04 00:16 | 48.75926 | -107.50479 | 35058 ft | 515 kts | 48° |
| 2026-05-04 00:17 | 48.80346 | -107.41943 | 35057 ft | 515 kts | 48° |
| 2026-05-04 00:17 | 48.84796 | -107.33326 | 35053 ft | 515 kts | 48° |
| 2026-05-04 00:18 | 48.89177 | -107.24818 | 35056 ft | 515 kts | 48° |
| 2026-05-04 00:18 | 48.93586 | -107.16226 | 35059 ft | 515 kts | 48° |
| 2026-05-04 00:19 | 48.97986 | -107.07625 | 35055 ft | 515 kts | 49° |
| 2026-05-04 00:19 | 49.02383 | -106.99001 | 35061 ft | 515 kts | 49° |
| 2026-05-04 00:20 | 49.06771 | -106.90365 | 35053 ft | 515 kts | 49° |
| 2026-05-04 00:20 | 49.11156 | -106.81710 | 35054 ft | 515 kts | 49° |
| 2026-05-04 00:21 | 49.15530 | -106.73047 | 35057 ft | 515 kts | 49° |
| 2026-05-04 00:21 | 49.19901 | -106.64363 | 35054 ft | 516 kts | 49° |
| 2026-05-04 00:22 | 49.24269 | -106.55656 | 35054 ft | 516 kts | 49° |
| 2026-05-04 00:22 | 49.28634 | -106.46926 | 35056 ft | 516 kts | 49° |
| 2026-05-04 00:23 | 49.32991 | -106.38183 | 35055 ft | 516 kts | 49° |
| 2026-05-04 00:23 | 49.37348 | -106.29413 | 35057 ft | 516 kts | 49° |
| 2026-05-04 00:24 | 49.41690 | -106.20642 | 35056 ft | 516 kts | 49° |
| 2026-05-04 00:24 | 49.46000 | -106.11909 | 35057 ft | 516 kts | 49° |
| 2026-05-04 00:25 | 49.50327 | -106.03113 | 35057 ft | 515 kts | 49° |
| 2026-05-04 00:25 | 49.54643 | -105.94308 | 35056 ft | 515 kts | 49° |
| 2026-05-04 00:26 | 49.58949 | -105.85496 | 35056 ft | 515 kts | 49° |
| 2026-05-04 00:26 | 49.63245 | -105.76675 | 35058 ft | 514 kts | 49° |
| 2026-05-04 00:27 | 49.67533 | -105.67841 | 35056 ft | 514 kts | 50° |
| 2026-05-04 00:27 | 49.71814 | -105.58991 | 35058 ft | 514 kts | 50° |
| 2026-05-04 00:28 | 49.76089 | -105.50128 | 35055 ft | 514 kts | 50° |
| 2026-05-04 00:28 | 49.80360 | -105.41240 | 35055 ft | 515 kts | 50° |
| 2026-05-04 00:29 | 49.84623 | -105.32340 | 35058 ft | 515 kts | 50° |
| 2026-05-04 00:29 | 49.88883 | -105.23417 | 35055 ft | 515 kts | 50° |
| 2026-05-04 00:30 | 49.93138 | -105.14476 | 35056 ft | 515 kts | 50° |
| 2026-05-04 00:30 | 49.97393 | -105.05509 | 35057 ft | 515 kts | 50° |
| 2026-05-04 00:31 | 50.01613 | -104.96514 | 35059 ft | 516 kts | 51° |
| 2026-05-04 00:31 | 50.05660 | -104.87293 | 35054 ft | 516 kts | 52° |
| 2026-05-04 00:32 | 50.09649 | -104.78001 | 35058 ft | 516 kts | 52° |
| 2026-05-04 00:32 | 50.13647 | -104.68733 | 35056 ft | 515 kts | 52° |